DOKL VNLK-VNLK
Flight info
| Callsign | DOKL |
|---|---|
| Flight time | 0h 8m |
| Altitude | 2500 |
| Route | PATTERN VNLK |
| Aircraft | C172/L-SDE3FGHIRWY/LB1 |
Departure
| Time | 2025-11-29 20:09 |
|---|---|
| Airport | Tenzing-Hillary Airport (VNLK) |
Arrival
| Time | 2025-11-29 20:17 |
|---|---|
| Airport | Tenzing-Hillary Airport (VNLK) |
| Time | Latitude | Longitude | Altitude | Speed | Heading |
|---|---|---|---|---|---|
| 2025-11-29 20:03 | 27.68733 | 86.73169 | 9413 ft | 0 kts | 248° |
| 2025-11-29 20:04 | 27.68762 | 86.73171 | 9413 ft | 3 kts | 353° |
| 2025-11-29 20:05 | 27.68211 | 86.72140 | 8989 ft | 118 kts | 234° |
| 2025-11-29 20:05 | 27.67693 | 86.71434 | 9200 ft | 103 kts | 234° |
| 2025-11-29 20:06 | 27.66352 | 86.71023 | 9457 ft | 92 kts | 171° |
| 2025-11-29 20:06 | 27.65718 | 86.71201 | 9559 ft | 100 kts | 175° |
| 2025-11-29 20:07 | 27.64473 | 86.71910 | 10011 ft | 75 kts | 163° |
| 2025-11-29 20:07 | 27.63391 | 86.71316 | 9754 ft | 121 kts | 167° |
| 2025-11-29 20:08 | 27.61521 | 86.72607 | 9809 ft | 131 kts | 158° |
| 2025-11-29 20:08 | 27.60598 | 86.73879 | 10304 ft | 88 kts | 129° |
| 2025-11-29 20:09 | 27.58974 | 86.74602 | 10532 ft | 94 kts | 155° |
| 2025-11-29 20:10 | 27.58254 | 86.75665 | 10744 ft | 85 kts | 70° |
| 2025-11-29 20:10 | 27.58951 | 86.76775 | 10681 ft | 90 kts | 40° |
| 2025-11-29 20:10 | 27.59530 | 86.77374 | 9973 ft | 141 kts | 49° |
| 2025-11-29 20:11 | 27.60087 | 86.77881 | 10430 ft | 99 kts | 45° |
| 2025-11-29 20:12 | 27.61976 | 86.80051 | 10726 ft | 89 kts | 36° |
| 2025-11-29 20:12 | 27.62989 | 86.80760 | 10988 ft | 89 kts | 22° |
| 2025-11-29 20:12 | 27.63620 | 86.80990 | 10879 ft | 98 kts | 9° |
| 2025-11-29 20:13 | 27.64845 | 86.81158 | 10988 ft | 71 kts | 31° |
| 2025-11-29 20:14 | 27.64625 | 86.81118 | 11008 ft | 62 kts | 214° |
| 2025-11-29 20:14 | 27.63273 | 86.80992 | 10145 ft | 141 kts | 199° |
| 2025-11-29 20:14 | 27.62663 | 86.80515 | 10563 ft | 92 kts | 215° |
| 2025-11-29 20:15 | 27.62361 | 86.79507 | 10603 ft | 18 kts | 75° |
| 2025-11-29 20:16 | 27.62345 | 86.79500 | 10566 ft | 0 kts | 346° |
| 2025-11-29 20:17 | 27.68733 | 86.73169 | 9414 ft | 0 kts | 248° |
| 2025-11-29 20:17 | 27.68743 | 86.73163 | 9409 ft | 5 kts | 12° |
| 2025-11-29 20:18 | 27.68546 | 86.72693 | 9176 ft | 95 kts | 239° |
| 2025-11-29 20:18 | 27.68348 | 86.71978 | 9334 ft | 88 kts | 257° |
| 2025-11-29 20:18 | 27.68064 | 86.72093 | 9213 ft | 114 kts | 31° |
| 2025-11-29 20:19 | 27.68783 | 86.73154 | 9407 ft | 49 kts | 56° |